sensor_id;sensor_type;location;lat;lon;timestamp;temperature;humidity
528;DHT22;250;47.712;7.508;2022-07-29T00:00:46;23.70;24.60
528;DHT22;250;47.712;7.508;2022-07-29T00:03:13;23.80;24.20
528;DHT22;250;47.712;7.508;2022-07-29T00:05:41;23.80;23.80
528;DHT22;250;47.712;7.508;2022-07-29T00:08:08;23.70;23.40
528;DHT22;250;47.712;7.508;2022-07-29T00:10:35;23.70;23.70
528;DHT22;250;47.712;7.508;2022-07-29T00:13:04;23.70;24.20
528;DHT22;250;47.712;7.508;2022-07-29T00:15:31;23.70;24.50
528;DHT22;250;47.712;7.508;2022-07-29T00:17:58;23.70;24.50
528;DHT22;250;47.712;7.508;2022-07-29T00:20:25;23.70;25.70
528;DHT22;250;47.712;7.508;2022-07-29T00:22:52;23.70;25.10
528;DHT22;250;47.712;7.508;2022-07-29T00:25:19;23.70;24.20
528;DHT22;250;47.712;7.508;2022-07-29T00:27:46;23.60;23.70
528;DHT22;250;47.712;7.508;2022-07-29T00:30:15;23.60;24.00
528;DHT22;250;47.712;7.508;2022-07-29T00:32:42;23.60;24.00
528;DHT22;250;47.712;7.508;2022-07-29T00:35:09;23.60;23.90
528;DHT22;250;47.712;7.508;2022-07-29T00:37:54;23.60;23.90
528;DHT22;250;47.712;7.508;2022-07-29T00:40:21;23.50;23.60
528;DHT22;250;47.712;7.508;2022-07-29T00:42:49;23.40;23.50
528;DHT22;250;47.712;7.508;2022-07-29T00:45:18;23.40;23.20
528;DHT22;250;47.712;7.508;2022-07-29T00:47:45;23.40;22.60
528;DHT22;250;47.712;7.508;2022-07-29T00:50:14;23.40;22.30
528;DHT22;250;47.712;7.508;2022-07-29T00:52:41;23.30;22.10
528;DHT22;250;47.712;7.508;2022-07-29T00:55:11;23.40;22.80
528;DHT22;250;47.712;7.508;2022-07-29T00:57:39;23.40;23.80
528;DHT22;250;47.712;7.508;2022-07-29T01:00:08;23.30;25.50
528;DHT22;250;47.712;7.508;2022-07-29T01:02:37;23.20;26.00
528;DHT22;250;47.712;7.508;2022-07-29T01:05:06;23.30;26.00
528;DHT22;250;47.712;7.508;2022-07-29T01:07:34;23.30;25.80
528;DHT22;250;47.712;7.508;2022-07-29T01:10:02;23.30;25.90
528;DHT22;250;47.712;7.508;2022-07-29T01:12:30;23.30;26.40
528;DHT22;250;47.712;7.508;2022-07-29T01:15:00;23.30;26.60
528;DHT22;250;47.712;7.508;2022-07-29T01:17:32;23.30;26.10
528;DHT22;250;47.712;7.508;2022-07-29T01:20:09;23.30;25.40
528;DHT22;250;47.712;7.508;2022-07-29T01:26:00;23.30;24.60
528;DHT22;250;47.712;7.508;2022-07-29T01:29:00;23.40;24.20
528;DHT22;250;47.712;7.508;2022-07-29T01:31:32;23.40;23.90
528;DHT22;250;47.712;7.508;2022-07-29T01:34:03;23.30;24.10
528;DHT22;250;47.712;7.508;2022-07-29T01:36:35;23.30;24.40
528;DHT22;250;47.712;7.508;2022-07-29T01:39:08;23.30;24.50
528;DHT22;250;47.712;7.508;2022-07-29T01:41:40;23.30;24.30
528;DHT22;250;47.712;7.508;2022-07-29T01:44:15;23.30;23.70
528;DHT22;250;47.712;7.508;2022-07-29T01:46:50;23.20;23.40
528;DHT22;250;47.712;7.508;2022-07-29T01:49:21;23.20;23.00
528;DHT22;250;47.712;7.508;2022-07-29T01:51:53;23.00;23.20
528;DHT22;250;47.712;7.508;2022-07-29T01:54:25;23.00;23.30
528;DHT22;250;47.712;7.508;2022-07-29T01:56:55;23.00;23.70
528;DHT22;250;47.712;7.508;2022-07-29T01:59:25;22.90;24.20
528;DHT22;250;47.712;7.508;2022-07-29T02:01:54;22.80;24.00
528;DHT22;250;47.712;7.508;2022-07-29T02:04:22;22.90;25.70
528;DHT22;250;47.712;7.508;2022-07-29T02:06:51;22.80;26.60
528;DHT22;250;47.712;7.508;2022-07-29T02:09:21;22.80;27.10
528;DHT22;250;47.712;7.508;2022-07-29T02:11:51;22.80;27.20
528;DHT22;250;47.712;7.508;2022-07-29T02:14:20;22.80;27.20
528;DHT22;250;47.712;7.508;2022-07-29T02:16:52;22.90;27.20
528;DHT22;250;47.712;7.508;2022-07-29T02:19:22;22.90;27.20
528;DHT22;250;47.712;7.508;2022-07-29T02:21:51;23.00;27.30
528;DHT22;250;47.712;7.508;2022-07-29T02:24:21;23.00;27.30
528;DHT22;250;47.712;7.508;2022-07-29T02:26:49;23.00;27.30
528;DHT22;250;47.712;7.508;2022-07-29T02:29:20;23.00;28.10
528;DHT22;250;47.712;7.508;2022-07-29T02:31:49;22.90;27.60
528;DHT22;250;47.712;7.508;2022-07-29T02:34:18;22.80;27.20
528;DHT22;250;47.712;7.508;2022-07-29T02:36:46;22.80;27.40
528;DHT22;250;47.712;7.508;2022-07-29T02:39:15;22.70;27.40
528;DHT22;250;47.712;7.508;2022-07-29T02:41:44;22.70;27.30
528;DHT22;250;47.712;7.508;2022-07-29T02:44:13;22.70;27.50
528;DHT22;250;47.712;7.508;2022-07-29T02:46:46;22.60;27.70
528;DHT22;250;47.712;7.508;2022-07-29T02:49:21;22.50;28.20
528;DHT22;250;47.712;7.508;2022-07-29T02:51:54;22.50;28.40
528;DHT22;250;47.712;7.508;2022-07-29T02:54:29;22.40;28.80
528;DHT22;250;47.712;7.508;2022-07-29T02:56:59;22.40;28.90
528;DHT22;250;47.712;7.508;2022-07-29T02:59:27;22.40;28.90
528;DHT22;250;47.712;7.508;2022-07-29T03:01:59;22.40;28.60
528;DHT22;250;47.712;7.508;2022-07-29T03:04:29;22.40;28.70
528;DHT22;250;47.712;7.508;2022-07-29T03:06:59;22.40;28.70
528;DHT22;250;47.712;7.508;2022-07-29T03:09:27;22.30;28.50
528;DHT22;250;47.712;7.508;2022-07-29T03:11:56;22.30;28.80
528;DHT22;250;47.712;7.508;2022-07-29T03:14:23;22.30;29.30
528;DHT22;250;47.712;7.508;2022-07-29T03:16:51;22.20;29.50
528;DHT22;250;47.712;7.508;2022-07-29T03:19:19;22.20;30.00
528;DHT22;250;47.712;7.508;2022-07-29T03:21:48;22.20;29.90
528;DHT22;250;47.712;7.508;2022-07-29T03:24:31;22.20;29.80
528;DHT22;250;47.712;7.508;2022-07-29T03:26:58;22.20;29.40
528;DHT22;250;47.712;7.508;2022-07-29T03:29:26;22.10;29.60
528;DHT22;250;47.712;7.508;2022-07-29T03:31:54;22.10;29.90
528;DHT22;250;47.712;7.508;2022-07-29T03:34:21;22.10;29.80
528;DHT22;250;47.712;7.508;2022-07-29T03:36:50;22.20;29.80
528;DHT22;250;47.712;7.508;2022-07-29T03:39:20;22.20;30.00
528;DHT22;250;47.712;7.508;2022-07-29T03:41:51;22.20;30.00
528;DHT22;250;47.712;7.508;2022-07-29T03:44:20;22.20;30.00
528;DHT22;250;47.712;7.508;2022-07-29T03:46:49;22.20;30.00
528;DHT22;250;47.712;7.508;2022-07-29T03:49:18;22.10;30.40
528;DHT22;250;47.712;7.508;2022-07-29T03:51:46;22.10;30.70
528;DHT22;250;47.712;7.508;2022-07-29T03:54:15;22.10;31.20
528;DHT22;250;47.712;7.508;2022-07-29T03:56:45;22.00;31.80
528;DHT22;250;47.712;7.508;2022-07-29T03:59:13;22.00;32.30
528;DHT22;250;47.712;7.508;2022-07-29T04:01:42;22.00;32.80
528;DHT22;250;47.712;7.508;2022-07-29T04:04:10;22.00;33.10
528;DHT22;250;47.712;7.508;2022-07-29T04:06:38;22.00;33.20
528;DHT22;250;47.712;7.508;2022-07-29T04:09:05;22.00;33.40
528;DHT22;250;47.712;7.508;2022-07-29T04:11:35;22.10;33.80
528;DHT22;250;47.712;7.508;2022-07-29T04:14:02;22.10;34.00
528;DHT22;250;47.712;7.508;2022-07-29T04:16:29;22.10;34.70
528;DHT22;250;47.712;7.508;2022-07-29T04:18:56;22.00;35.00
528;DHT22;250;47.712;7.508;2022-07-29T04:21:23;22.00;35.00
528;DHT22;250;47.712;7.508;2022-07-29T04:23:50;22.00;34.90
528;DHT22;250;47.712;7.508;2022-07-29T04:26:18;22.00;35.00
528;DHT22;250;47.712;7.508;2022-07-29T04:28:47;22.00;34.90
528;DHT22;250;47.712;7.508;2022-07-29T04:31:14;22.00;35.20
528;DHT22;250;47.712;7.508;2022-07-29T04:33:41;22.00;35.70
528;DHT22;250;47.712;7.508;2022-07-29T04:36:08;22.00;35.70
528;DHT22;250;47.712;7.508;2022-07-29T04:38:37;22.00;35.50
528;DHT22;250;47.712;7.508;2022-07-29T04:41:04;22.00;35.70
528;DHT22;250;47.712;7.508;2022-07-29T04:43:32;22.00;35.70
528;DHT22;250;47.712;7.508;2022-07-29T04:46:01;22.00;35.50
528;DHT22;250;47.712;7.508;2022-07-29T04:48:28;22.00;35.70
528;DHT22;250;47.712;7.508;2022-07-29T04:50:55;22.00;35.70
528;DHT22;250;47.712;7.508;2022-07-29T04:53:22;22.00;34.30
528;DHT22;250;47.712;7.508;2022-07-29T04:55:49;21.90;34.20
528;DHT22;250;47.712;7.508;2022-07-29T04:58:16;21.90;34.30
528;DHT22;250;47.712;7.508;2022-07-29T05:00:43;21.90;34.90
528;DHT22;250;47.712;7.508;2022-07-29T05:03:12;21.90;35.00
528;DHT22;250;47.712;7.508;2022-07-29T05:05:39;21.80;35.30
528;DHT22;250;47.712;7.508;2022-07-29T05:08:06;21.80;35.60
528;DHT22;250;47.712;7.508;2022-07-29T05:10:33;21.80;35.60
528;DHT22;250;47.712;7.508;2022-07-29T05:13:04;21.80;35.60
528;DHT22;250;47.712;7.508;2022-07-29T05:15:31;21.90;35.70
528;DHT22;250;47.712;7.508;2022-07-29T05:17:58;21.90;35.60
528;DHT22;250;47.712;7.508;2022-07-29T05:20:27;22.00;35.70
528;DHT22;250;47.712;7.508;2022-07-29T05:22:55;22.00;35.70
528;DHT22;250;47.712;7.508;2022-07-29T05:25:22;22.10;35.80
528;DHT22;250;47.712;7.508;2022-07-29T05:27:49;22.10;35.80
528;DHT22;250;47.712;7.508;2022-07-29T05:30:16;22.20;35.90
528;DHT22;250;47.712;7.508;2022-07-29T05:32:44;22.20;35.90
528;DHT22;250;47.712;7.508;2022-07-29T05:35:11;22.30;36.00
528;DHT22;250;47.712;7.508;2022-07-29T05:37:40;22.30;36.00
528;DHT22;250;47.712;7.508;2022-07-29T05:40:08;22.30;36.00
528;DHT22;250;47.712;7.508;2022-07-29T05:42:35;22.30;36.00
528;DHT22;250;47.712;7.508;2022-07-29T05:45:03;22.30;36.80
528;DHT22;250;47.712;7.508;2022-07-29T05:47:30;22.30;37.50
528;DHT22;250;47.712;7.508;2022-07-29T05:49:57;22.30;38.00
528;DHT22;250;47.712;7.508;2022-07-29T05:52:24;22.20;38.10
528;DHT22;250;47.712;7.508;2022-07-29T05:54:53;22.20;38.00
528;DHT22;250;47.712;7.508;2022-07-29T05:57:21;22.20;38.30
528;DHT22;250;47.712;7.508;2022-07-29T05:59:49;22.20;38.40
528;DHT22;250;47.712;7.508;2022-07-29T06:02:16;22.20;38.80
528;DHT22;250;47.712;7.508;2022-07-29T06:04:44;22.20;39.10
528;DHT22;250;47.712;7.508;2022-07-29T06:07:11;22.10;39.00
528;DHT22;250;47.712;7.508;2022-07-29T06:09:38;22.10;38.80
528;DHT22;250;47.712;7.508;2022-07-29T06:12:06;22.10;38.70
528;DHT22;250;47.712;7.508;2022-07-29T06:14:33;22.10;38.80
528;DHT22;250;47.712;7.508;2022-07-29T06:17:01;22.10;39.00
528;DHT22;250;47.712;7.508;2022-07-29T06:19:28;22.10;39.20
528;DHT22;250;47.712;7.508;2022-07-29T06:21:55;22.10;39.00
528;DHT22;250;47.712;7.508;2022-07-29T06:24:22;22.10;39.10
528;DHT22;250;47.712;7.508;2022-07-29T06:26:49;22.10;39.20
528;DHT22;250;47.712;7.508;2022-07-29T06:29:18;22.10;39.00
528;DHT22;250;47.712;7.508;2022-07-29T06:31:45;22.10;39.20
528;DHT22;250;47.712;7.508;2022-07-29T06:34:12;22.10;39.20
528;DHT22;250;47.712;7.508;2022-07-29T06:36:39;22.20;38.40
528;DHT22;250;47.712;7.508;2022-07-29T06:39:06;22.20;38.10
528;DHT22;250;47.712;7.508;2022-07-29T06:41:33;22.20;38.20
528;DHT22;250;47.712;7.508;2022-07-29T06:44:01;22.30;38.10
528;DHT22;250;47.712;7.508;2022-07-29T06:46:29;22.40;37.90
528;DHT22;250;47.712;7.508;2022-07-29T06:48:57;22.40;38.20
528;DHT22;250;47.712;7.508;2022-07-29T06:51:26;22.30;36.00
528;DHT22;250;47.712;7.508;2022-07-29T06:53:53;22.30;37.40
528;DHT22;250;47.712;7.508;2022-07-29T06:56:20;22.40;38.20
528;DHT22;250;47.712;7.508;2022-07-29T06:58:47;22.40;38.20
528;DHT22;250;47.712;7.508;2022-07-29T07:01:15;22.50;38.10
528;DHT22;250;47.712;7.508;2022-07-29T07:03:43;22.50;37.70
528;DHT22;250;47.712;7.508;2022-07-29T07:06:10;22.50;37.30
528;DHT22;250;47.712;7.508;2022-07-29T07:08:37;22.40;36.50
528;DHT22;250;47.712;7.508;2022-07-29T07:11:04;22.50;36.20
528;DHT22;250;47.712;7.508;2022-07-29T07:13:32;22.50;36.50
528;DHT22;250;47.712;7.508;2022-07-29T07:16:00;22.50;37.10
528;DHT22;250;47.712;7.508;2022-07-29T07:18:27;22.50;38.20
528;DHT22;250;47.712;7.508;2022-07-29T07:20:56;22.50;39.90
528;DHT22;250;47.712;7.508;2022-07-29T07:23:24;22.50;40.60
528;DHT22;250;47.712;7.508;2022-07-29T07:25:51;22.50;40.60
528;DHT22;250;47.712;7.508;2022-07-29T07:28:18;22.60;40.60
528;DHT22;250;47.712;7.508;2022-07-29T07:30:45;22.50;39.70
528;DHT22;250;47.712;7.508;2022-07-29T07:33:13;22.60;39.50
528;DHT22;250;47.712;7.508;2022-07-29T07:35:40;22.60;40.20
528;DHT22;250;47.712;7.508;2022-07-29T07:38:08;22.60;39.40
528;DHT22;250;47.712;7.508;2022-07-29T07:40:35;22.60;36.30
528;DHT22;250;47.712;7.508;2022-07-29T07:43:02;22.70;36.40
528;DHT22;250;47.712;7.508;2022-07-29T07:45:30;22.70;36.40
528;DHT22;250;47.712;7.508;2022-07-29T07:47:58;22.70;35.20
528;DHT22;250;47.712;7.508;2022-07-29T07:50:25;22.70;34.70
528;DHT22;250;47.712;7.508;2022-07-29T07:52:53;22.70;33.90
528;DHT22;250;47.712;7.508;2022-07-29T07:55:24;22.70;33.20
528;DHT22;250;47.712;7.508;2022-07-29T07:57:52;22.60;33.50
528;DHT22;250;47.712;7.508;2022-07-29T08:00:19;22.70;33.80
528;DHT22;250;47.712;7.508;2022-07-29T08:02:46;22.60;33.90
528;DHT22;250;47.712;7.508;2022-07-29T08:05:13;22.70;33.60
528;DHT22;250;47.712;7.508;2022-07-29T08:07:44;22.60;33.00
528;DHT22;250;47.712;7.508;2022-07-29T08:10:12;22.70;32.10
528;DHT22;250;47.712;7.508;2022-07-29T08:12:40;22.70;33.30
528;DHT22;250;47.712;7.508;2022-07-29T08:15:08;22.80;33.50
528;DHT22;250;47.712;7.508;2022-07-29T08:17:35;22.80;33.20
528;DHT22;250;47.712;7.508;2022-07-29T08:20:03;22.80;34.20
528;DHT22;250;47.712;7.508;2022-07-29T08:22:31;22.90;34.60
528;DHT22;250;47.712;7.508;2022-07-29T08:24:58;22.90;34.30
528;DHT22;250;47.712;7.508;2022-07-29T08:27:25;22.90;33.30
528;DHT22;250;47.712;7.508;2022-07-29T08:29:56;23.00;33.90
528;DHT22;250;47.712;7.508;2022-07-29T08:32:23;22.90;33.30
528;DHT22;250;47.712;7.508;2022-07-29T08:34:50;23.00;32.80
528;DHT22;250;47.712;7.508;2022-07-29T08:37:17;23.10;31.70
528;DHT22;250;47.712;7.508;2022-07-29T08:39:44;23.20;30.40
528;DHT22;250;47.712;7.508;2022-07-29T08:42:11;23.30;29.80
528;DHT22;250;47.712;7.508;2022-07-29T08:44:39;23.30;27.30
528;DHT22;250;47.712;7.508;2022-07-29T08:47:08;23.30;25.50
528;DHT22;250;47.712;7.508;2022-07-29T08:49:35;23.30;26.30
528;DHT22;250;47.712;7.508;2022-07-29T08:52:02;23.30;25.50
528;DHT22;250;47.712;7.508;2022-07-29T08:54:30;23.30;24.80
528;DHT22;250;47.712;7.508;2022-07-29T08:56:57;23.30;25.00
528;DHT22;250;47.712;7.508;2022-07-29T08:59:26;23.40;25.00
528;DHT22;250;47.712;7.508;2022-07-29T09:01:54;23.40;24.70
528;DHT22;250;47.712;7.508;2022-07-29T09:04:29;23.50;25.00
528;DHT22;250;47.712;7.508;2022-07-29T09:06:57;23.50;23.80
528;DHT22;250;47.712;7.508;2022-07-29T09:09:26;23.50;25.00
528;DHT22;250;47.712;7.508;2022-07-29T09:11:54;23.60;25.50
528;DHT22;250;47.712;7.508;2022-07-29T09:14:21;23.70;24.60
528;DHT22;250;47.712;7.508;2022-07-29T09:16:50;23.80;24.30
528;DHT22;250;47.712;7.508;2022-07-29T09:19:27;23.80;24.30
528;DHT22;250;47.712;7.508;2022-07-29T09:21:55;23.80;24.00
528;DHT22;250;47.712;7.508;2022-07-29T09:24:27;23.90;24.30
528;DHT22;250;47.712;7.508;2022-07-29T09:27:02;24.00;24.00
528;DHT22;250;47.712;7.508;2022-07-29T09:29:29;24.10;24.00
528;DHT22;250;47.712;7.508;2022-07-29T09:31:57;24.10;24.40
528;DHT22;250;47.712;7.508;2022-07-29T09:34:25;24.20;24.40
528;DHT22;250;47.712;7.508;2022-07-29T09:36:54;24.20;24.20
528;DHT22;250;47.712;7.508;2022-07-29T09:39:29;24.30;24.20
528;DHT22;250;47.712;7.508;2022-07-29T09:42:03;24.30;24.20
528;DHT22;250;47.712;7.508;2022-07-29T09:44:44;24.20;24.80
528;DHT22;250;47.712;7.508;2022-07-29T09:47:14;24.30;25.20
528;DHT22;250;47.712;7.508;2022-07-29T09:49:52;24.30;25.60
528;DHT22;250;47.712;7.508;2022-07-29T09:52:21;24.40;25.20
528;DHT22;250;47.712;7.508;2022-07-29T09:54:48;24.40;25.00
528;DHT22;250;47.712;7.508;2022-07-29T09:57:24;24.50;25.40
528;DHT22;250;47.712;7.508;2022-07-29T09:59:59;24.50;25.50
528;DHT22;250;47.712;7.508;2022-07-29T10:02:31;24.50;25.40
528;DHT22;250;47.712;7.508;2022-07-29T10:04:59;24.50;25.40
528;DHT22;250;47.712;7.508;2022-07-29T10:07:43;24.60;24.90
528;DHT22;250;47.712;7.508;2022-07-29T10:10:17;24.70;24.70
528;DHT22;250;47.712;7.508;2022-07-29T10:12:53;24.70;24.50
528;DHT22;250;47.712;7.508;2022-07-29T10:15:22;24.80;24.30
528;DHT22;250;47.712;7.508;2022-07-29T10:17:50;24.90;24.40
528;DHT22;250;47.712;7.508;2022-07-29T10:20:18;25.00;24.40
528;DHT22;250;47.712;7.508;2022-07-29T10:22:46;25.00;23.90
528;DHT22;250;47.712;7.508;2022-07-29T10:25:14;25.10;23.50
528;DHT22;250;47.712;7.508;2022-07-29T10:27:42;25.00;23.20
528;DHT22;250;47.712;7.508;2022-07-29T10:30:10;25.00;23.50
528;DHT22;250;47.712;7.508;2022-07-29T10:32:50;25.10;23.00
528;DHT22;250;47.712;7.508;2022-07-29T10:35:26;25.10;22.80
528;DHT22;250;47.712;7.508;2022-07-29T10:38:25;25.20;22.60
528;DHT22;250;47.712;7.508;2022-07-29T10:41:01;25.30;21.80
528;DHT22;250;47.712;7.508;2022-07-29T10:43:51;25.30;21.10
528;DHT22;250;47.712;7.508;2022-07-29T10:46:20;25.40;20.70
528;DHT22;250;47.712;7.508;2022-07-29T10:49:07;25.40;20.70
528;DHT22;250;47.712;7.508;2022-07-29T10:51:53;25.30;20.70
528;DHT22;250;47.712;7.508;2022-07-29T10:57:26;25.40;20.70
528;DHT22;250;47.712;7.508;2022-07-29T11:02:58;25.40;20.20
528;DHT22;250;47.712;7.508;2022-07-29T11:05:26;25.40;20.60
528;DHT22;250;47.712;7.508;2022-07-29T11:08:19;25.40;20.10
528;DHT22;250;47.712;7.508;2022-07-29T11:10:52;25.40;19.10
528;DHT22;250;47.712;7.508;2022-07-29T11:13:46;25.30;18.70
528;DHT22;250;47.712;7.508;2022-07-29T11:16:13;25.40;18.40
528;DHT22;250;47.712;7.508;2022-07-29T11:21:45;25.30;18.70
528;DHT22;250;47.712;7.508;2022-07-29T11:24:13;25.30;18.10
528;DHT22;250;47.712;7.508;2022-07-29T11:26:41;25.30;18.10
528;DHT22;250;47.712;7.508;2022-07-29T11:29:19;25.20;17.50
528;DHT22;250;47.712;7.508;2022-07-29T11:31:49;25.30;17.80
528;DHT22;250;47.712;7.508;2022-07-29T11:34:21;25.30;17.30
528;DHT22;250;47.712;7.508;2022-07-29T11:37:14;25.30;17.80
528;DHT22;250;47.712;7.508;2022-07-29T11:39:42;25.30;17.30
528;DHT22;250;47.712;7.508;2022-07-29T11:42:40;25.30;17.50
528;DHT22;250;47.712;7.508;2022-07-29T11:45:10;25.30;18.10
528;DHT22;250;47.712;7.508;2022-07-29T11:47:40;25.20;17.60
528;DHT22;250;47.712;7.508;2022-07-29T11:50:12;25.20;17.60
528;DHT22;250;47.712;7.508;2022-07-29T11:52:41;25.20;17.30
528;DHT22;250;47.712;7.508;2022-07-29T11:55:13;25.20;17.70
528;DHT22;250;47.712;7.508;2022-07-29T11:57:46;25.20;17.80
528;DHT22;250;47.712;7.508;2022-07-29T12:00:24;25.20;17.90
528;DHT22;250;47.712;7.508;2022-07-29T12:02:51;25.20;17.80
528;DHT22;250;47.712;7.508;2022-07-29T12:05:19;25.20;17.60
528;DHT22;250;47.712;7.508;2022-07-29T12:07:47;25.20;17.10
528;DHT22;250;47.712;7.508;2022-07-29T12:10:14;25.30;17.30
528;DHT22;250;47.712;7.508;2022-07-29T12:12:42;25.20;17.60
528;DHT22;250;47.712;7.508;2022-07-29T12:15:13;25.10;17.80
528;DHT22;250;47.712;7.508;2022-07-29T12:17:44;25.00;18.20
528;DHT22;250;47.712;7.508;2022-07-29T12:20:11;24.80;18.60
528;DHT22;250;47.712;7.508;2022-07-29T12:22:40;24.70;19.60
528;DHT22;250;47.712;7.508;2022-07-29T12:25:11;24.70;21.20
528;DHT22;250;47.712;7.508;2022-07-29T12:27:41;24.50;21.70
528;DHT22;250;47.712;7.508;2022-07-29T12:30:11;24.50;22.30
528;DHT22;250;47.712;7.508;2022-07-29T12:32:40;24.50;22.60
528;DHT22;250;47.712;7.508;2022-07-29T12:35:12;24.50;22.90
528;DHT22;250;47.712;7.508;2022-07-29T12:37:41;24.30;21.80
528;DHT22;250;47.712;7.508;2022-07-29T12:40:10;24.20;23.30
528;DHT22;250;47.712;7.508;2022-07-29T12:42:38;24.20;23.00
528;DHT22;250;47.712;7.508;2022-07-29T12:45:07;24.10;23.00
528;DHT22;250;47.712;7.508;2022-07-29T12:47:50;24.10;22.90
528;DHT22;250;47.712;7.508;2022-07-29T12:50:19;24.10;23.50
528;DHT22;250;47.712;7.508;2022-07-29T12:52:47;24.20;23.00
528;DHT22;250;47.712;7.508;2022-07-29T12:55:14;24.20;22.30
528;DHT22;250;47.712;7.508;2022-07-29T12:57:45;24.00;21.60
528;DHT22;250;47.712;7.508;2022-07-29T13:00:14;24.00;22.20
528;DHT22;250;47.712;7.508;2022-07-29T13:02:42;23.90;21.70
528;DHT22;250;47.712;7.508;2022-07-29T13:05:10;23.90;21.00
528;DHT22;250;47.712;7.508;2022-07-29T13:07:39;23.90;20.60
528;DHT22;250;47.712;7.508;2022-07-29T13:10:11;23.90;19.80
528;DHT22;250;47.712;7.508;2022-07-29T13:12:39;24.00;19.40
528;DHT22;250;47.712;7.508;2022-07-29T13:15:13;24.10;18.00
528;DHT22;250;47.712;7.508;2022-07-29T13:17:42;24.20;18.00
528;DHT22;250;47.712;7.508;2022-07-29T13:20:11;24.10;17.70
528;DHT22;250;47.712;7.508;2022-07-29T13:22:42;24.20;17.60
528;DHT22;250;47.712;7.508;2022-07-29T13:25:09;24.20;17.20
528;DHT22;250;47.712;7.508;2022-07-29T13:27:37;24.30;16.60
528;DHT22;250;47.712;7.508;2022-07-29T13:30:07;24.40;16.90
528;DHT22;250;47.712;7.508;2022-07-29T13:32:34;24.40;16.70
528;DHT22;250;47.712;7.508;2022-07-29T13:35:05;24.40;17.20
528;DHT22;250;47.712;7.508;2022-07-29T13:37:32;24.40;17.00
528;DHT22;250;47.712;7.508;2022-07-29T13:40:02;24.40;16.30
528;DHT22;250;47.712;7.508;2022-07-29T13:42:30;24.40;16.60
528;DHT22;250;47.712;7.508;2022-07-29T13:44:57;24.50;15.80
528;DHT22;250;47.712;7.508;2022-07-29T13:47:25;24.50;16.00
528;DHT22;250;47.712;7.508;2022-07-29T13:49:52;24.50;15.50
528;DHT22;250;47.712;7.508;2022-07-29T13:52:19;24.60;14.40
528;DHT22;250;47.712;7.508;2022-07-29T13:54:46;24.60;14.80
528;DHT22;250;47.712;7.508;2022-07-29T13:57:15;24.70;14.60
528;DHT22;250;47.712;7.508;2022-07-29T13:59:42;24.70;14.60
528;DHT22;250;47.712;7.508;2022-07-29T14:02:11;24.70;14.30
528;DHT22;250;47.712;7.508;2022-07-29T14:04:39;24.70;14.50
528;DHT22;250;47.712;7.508;2022-07-29T14:07:07;24.70;14.50
528;DHT22;250;47.712;7.508;2022-07-29T14:09:34;24.70;14.70
528;DHT22;250;47.712;7.508;2022-07-29T14:12:01;24.70;14.40
528;DHT22;250;47.712;7.508;2022-07-29T14:14:30;24.80;14.80
528;DHT22;250;47.712;7.508;2022-07-29T14:16:58;24.90;15.00
528;DHT22;250;47.712;7.508;2022-07-29T14:19:25;24.80;14.00
528;DHT22;250;47.712;7.508;2022-07-29T14:21:52;24.80;14.50
528;DHT22;250;47.712;7.508;2022-07-29T14:24:19;25.00;13.30
528;DHT22;250;47.712;7.508;2022-07-29T14:26:46;25.00;13.70
528;DHT22;250;47.712;7.508;2022-07-29T14:29:13;25.00;13.60
528;DHT22;250;47.712;7.508;2022-07-29T14:31:42;24.90;13.40
528;DHT22;250;47.712;7.508;2022-07-29T14:34:09;25.00;14.00
528;DHT22;250;47.712;7.508;2022-07-29T14:36:36;25.00;13.10
528;DHT22;250;47.712;7.508;2022-07-29T14:39:03;25.00;13.30
528;DHT22;250;47.712;7.508;2022-07-29T14:41:30;25.00;13.70
528;DHT22;250;47.712;7.508;2022-07-29T14:43:57;25.00;13.40
528;DHT22;250;47.712;7.508;2022-07-29T14:46:26;25.00;13.10
528;DHT22;250;47.712;7.508;2022-07-29T14:48:54;25.00;12.10
528;DHT22;250;47.712;7.508;2022-07-29T14:51:21;25.00;12.10
528;DHT22;250;47.712;7.508;2022-07-29T14:53:48;25.00;12.10
528;DHT22;250;47.712;7.508;2022-07-29T14:56:15;25.00;12.10
528;DHT22;250;47.712;7.508;2022-07-29T14:58:43;25.00;12.10
528;DHT22;250;47.712;7.508;2022-07-29T15:01:10;24.90;12.00
528;DHT22;250;47.712;7.508;2022-07-29T15:03:37;25.00;12.10
528;DHT22;250;47.712;7.508;2022-07-29T15:06:05;25.00;12.10
528;DHT22;250;47.712;7.508;2022-07-29T15:08:33;25.10;12.20
528;DHT22;250;47.712;7.508;2022-07-29T15:11:00;25.10;12.20
528;DHT22;250;47.712;7.508;2022-07-29T15:13:27;25.10;12.20
528;DHT22;250;47.712;7.508;2022-07-29T15:15:55;25.20;11.80
528;DHT22;250;47.712;7.508;2022-07-29T15:18:22;25.20;10.90
528;DHT22;250;47.712;7.508;2022-07-29T15:20:49;25.20;11.00
528;DHT22;250;47.712;7.508;2022-07-29T15:23:17;25.30;10.40
528;DHT22;250;47.712;7.508;2022-07-29T15:25:44;25.30;10.50
528;DHT22;250;47.712;7.508;2022-07-29T15:28:11;25.40;10.60
528;DHT22;250;47.712;7.508;2022-07-29T15:30:38;25.60;10.70
528;DHT22;250;47.712;7.508;2022-07-29T15:33:08;25.70;10.60
528;DHT22;250;47.712;7.508;2022-07-29T15:35:35;25.90;10.20
528;DHT22;250;47.712;7.508;2022-07-29T15:38:03;25.90;9.80
528;DHT22;250;47.712;7.508;2022-07-29T15:40:31;25.90;9.50
528;DHT22;250;47.712;7.508;2022-07-29T15:42:58;25.90;9.40
528;DHT22;250;47.712;7.508;2022-07-29T15:45:35;25.90;9.90
528;DHT22;250;47.712;7.508;2022-07-29T15:48:03;25.90;9.70
528;DHT22;250;47.712;7.508;2022-07-29T15:50:30;26.00;10.00
528;DHT22;250;47.712;7.508;2022-07-29T15:52:58;26.10;9.80
528;DHT22;250;47.712;7.508;2022-07-29T15:55:25;26.20;9.60
528;DHT22;250;47.712;7.508;2022-07-29T15:57:53;26.20;9.10
528;DHT22;250;47.712;7.508;2022-07-29T16:00:20;26.30;9.10
528;DHT22;250;47.712;7.508;2022-07-29T16:02:49;26.30;9.30
528;DHT22;250;47.712;7.508;2022-07-29T16:05:16;26.30;9.50
528;DHT22;250;47.712;7.508;2022-07-29T16:07:44;26.40;9.50
528;DHT22;250;47.712;7.508;2022-07-29T16:10:11;26.40;9.20
528;DHT22;250;47.712;7.508;2022-07-29T16:12:38;26.40;9.30
528;DHT22;250;47.712;7.508;2022-07-29T16:15:07;26.40;9.60
528;DHT22;250;47.712;7.508;2022-07-29T16:17:35;26.50;9.90
528;DHT22;250;47.712;7.508;2022-07-29T16:20:04;26.50;9.80
528;DHT22;250;47.712;7.508;2022-07-29T16:22:31;26.50;9.80
528;DHT22;250;47.712;7.508;2022-07-29T16:24:58;26.60;9.90
528;DHT22;250;47.712;7.508;2022-07-29T16:27:25;26.60;9.80
528;DHT22;250;47.712;7.508;2022-07-29T16:29:53;26.70;9.80
528;DHT22;250;47.712;7.508;2022-07-29T16:32:21;26.60;9.90
528;DHT22;250;47.712;7.508;2022-07-29T16:34:48;26.50;10.10
528;DHT22;250;47.712;7.508;2022-07-29T16:37:15;26.50;9.80
528;DHT22;250;47.712;7.508;2022-07-29T16:39:42;26.60;9.30
528;DHT22;250;47.712;7.508;2022-07-29T16:42:09;26.50;9.70
528;DHT22;250;47.712;7.508;2022-07-29T16:44:36;26.50;9.50
528;DHT22;250;47.712;7.508;2022-07-29T16:47:04;26.50;9.70
528;DHT22;250;47.712;7.508;2022-07-29T16:49:32;26.50;9.80
528;DHT22;250;47.712;7.508;2022-07-29T16:51:59;26.60;9.50
528;DHT22;250;47.712;7.508;2022-07-29T16:54:26;26.60;9.50
528;DHT22;250;47.712;7.508;2022-07-29T16:56:53;26.60;9.20
528;DHT22;250;47.712;7.508;2022-07-29T16:59:20;26.50;9.40
528;DHT22;250;47.712;7.508;2022-07-29T17:01:48;26.50;9.60